logo
Rechercher aéroport 
image banner adimage banner adimage banner ad
image banner ad

YSNF - Norfolk Island

Situé à Norfolk Island, Norfolk Island

ICAO - YSNF, IATA - NLK

Données fournies par Airmate  

Information générale

Coordonnées: S29°2'33" E167°56'17"
Élévation : 371 feet MSL.
 
Voir autres Aéroports à (unassigned)

Données opérationnelles

Special qualification required
Heure actuelle UTC:
Heure actuelle locale:
Météo
METAR: YSNF 232000Z AUTO 15007KT 9999 // BKN029 14/09 Q1025 RF00.0/000.0
TAF: TAF YSNF 231702Z 2318/2418 14008KT 9999 SCT035 FM241000 15011KT 9999 -SHRA SCT030
Voir NOTAMs / SUP AIP / TFR affectant cet aéroport [VIEW]
Fréquences de communication: [VIEW]

Pistes:

Identifiant RWYQFULongueur (ft)Largeur (ft)SurfaceLDA (ft)
0450°470898ASPH
22230°470898ASPH
11122°6201148ASPH
29302°6201148ASPH

Coordonnées de l'aéroport

Adresse: Norfolk Island Norfolk Island

Vue satellite de YSNF